sensor_id;sensor_type;location;lat;lon;timestamp;P1;durP1;ratioP1;P2;durP2;ratioP2
44694;SDS011;32845;59.422;17.930;2022-12-18T00:03:54;15.85;;;7.30;;
44694;SDS011;32845;59.422;17.930;2022-12-18T00:08:25;22.30;;;10.77;;
44694;SDS011;32845;59.422;17.930;2022-12-18T00:12:56;18.52;;;6.97;;
44694;SDS011;32845;59.422;17.930;2022-12-18T00:17:27;23.98;;;7.95;;
44694;SDS011;32845;59.422;17.930;2022-12-18T00:21:57;20.15;;;7.45;;
44694;SDS011;32845;59.422;17.930;2022-12-18T00:26:29;18.23;;;7.65;;
44694;SDS011;32845;59.422;17.930;2022-12-18T00:31:02;27.38;;;6.85;;
44694;SDS011;32845;59.422;17.930;2022-12-18T00:35:34;18.50;;;7.45;;
44694;SDS011;32845;59.422;17.930;2022-12-18T00:40:04;16.40;;;6.90;;
44694;SDS011;32845;59.422;17.930;2022-12-18T00:44:35;22.33;;;6.93;;
44694;SDS011;32845;59.422;17.930;2022-12-18T00:49:06;21.27;;;8.55;;
44694;SDS011;32845;59.422;17.930;2022-12-18T00:53:37;16.75;;;7.32;;
44694;SDS011;32845;59.422;17.930;2022-12-18T00:58:09;17.63;;;7.85;;
44694;SDS011;32845;59.422;17.930;2022-12-18T01:02:41;26.15;;;8.90;;
44694;SDS011;32845;59.422;17.930;2022-12-18T01:07:11;18.42;;;7.97;;
44694;SDS011;32845;59.422;17.930;2022-12-18T01:11:42;20.10;;;6.75;;
44694;SDS011;32845;59.422;17.930;2022-12-18T01:16:13;15.40;;;6.80;;
44694;SDS011;32845;59.422;17.930;2022-12-18T01:20:46;14.30;;;5.78;;
44694;SDS011;32845;59.422;17.930;2022-12-18T01:25:16;15.00;;;6.43;;
44694;SDS011;32845;59.422;17.930;2022-12-18T01:29:47;13.40;;;5.57;;
44694;SDS011;32845;59.422;17.930;2022-12-18T01:34:19;15.73;;;5.70;;
44694;SDS011;32845;59.422;17.930;2022-12-18T01:38:50;11.45;;;5.50;;
44694;SDS011;32845;59.422;17.930;2022-12-18T01:48:27;18.92;;;6.55;;
44694;SDS011;32845;59.422;17.930;2022-12-18T01:52:59;23.35;;;9.45;;
44694;SDS011;32845;59.422;17.930;2022-12-18T01:57:39;20.70;;;6.55;;
44694;SDS011;32845;59.422;17.930;2022-12-18T02:02:11;16.05;;;6.30;;
44694;SDS011;32845;59.422;17.930;2022-12-18T02:06:42;18.98;;;6.90;;
44694;SDS011;32845;59.422;17.930;2022-12-18T02:11:30;22.27;;;7.32;;
44694;SDS011;32845;59.422;17.930;2022-12-18T02:16:40;21.00;;;7.38;;
44694;SDS011;32845;59.422;17.930;2022-12-18T02:30:33;17.85;;;7.35;;
44694;SDS011;32845;59.422;17.930;2022-12-18T02:35:08;16.13;;;6.22;;
44694;SDS011;32845;59.422;17.930;2022-12-18T02:39:44;19.75;;;7.13;;
44694;SDS011;32845;59.422;17.930;2022-12-18T02:44:17;23.27;;;6.78;;
44694;SDS011;32845;59.422;17.930;2022-12-18T02:48:47;17.35;;;6.65;;
44694;SDS011;32845;59.422;17.930;2022-12-18T02:58:09;13.75;;;5.70;;
44694;SDS011;32845;59.422;17.930;2022-12-18T03:03:14;13.50;;;6.00;;
44694;SDS011;32845;59.422;17.930;2022-12-18T03:07:54;17.67;;;6.88;;
44694;SDS011;32845;59.422;17.930;2022-12-18T03:12:35;14.18;;;6.03;;
44694;SDS011;32845;59.422;17.930;2022-12-18T03:17:10;17.25;;;6.30;;
44694;SDS011;32845;59.422;17.930;2022-12-18T03:21:46;19.90;;;6.38;;
44694;SDS011;32845;59.422;17.930;2022-12-18T03:26:22;11.07;;;5.55;;
44694;SDS011;32845;59.422;17.930;2022-12-18T03:30:56;19.10;;;5.90;;
44694;SDS011;32845;59.422;17.930;2022-12-18T03:35:31;14.65;;;5.60;;
44694;SDS011;32845;59.422;17.930;2022-12-18T03:40:06;14.07;;;5.47;;
44694;SDS011;32845;59.422;17.930;2022-12-18T03:49:41;11.27;;;4.93;;
44694;SDS011;32845;59.422;17.930;2022-12-18T03:54:26;11.65;;;5.32;;
44694;SDS011;32845;59.422;17.930;2022-12-18T03:58:58;18.73;;;5.93;;
44694;SDS011;32845;59.422;17.930;2022-12-18T04:03:31;13.88;;;6.22;;
44694;SDS011;32845;59.422;17.930;2022-12-18T04:08:03;15.30;;;5.80;;
44694;SDS011;32845;59.422;17.930;2022-12-18T04:12:36;13.35;;;5.72;;
44694;SDS011;32845;59.422;17.930;2022-12-18T04:17:08;18.33;;;6.03;;
44694;SDS011;32845;59.422;17.930;2022-12-18T04:21:38;13.15;;;6.10;;
44694;SDS011;32845;59.422;17.930;2022-12-18T04:26:09;18.98;;;6.20;;
44694;SDS011;32845;59.422;17.930;2022-12-18T04:30:40;12.57;;;5.75;;
44694;SDS011;32845;59.422;17.930;2022-12-18T04:35:10;13.77;;;5.65;;
44694;SDS011;32845;59.422;17.930;2022-12-18T04:39:41;13.13;;;5.68;;
44694;SDS011;32845;59.422;17.930;2022-12-18T04:44:12;13.70;;;5.68;;
44694;SDS011;32845;59.422;17.930;2022-12-18T04:48:45;11.40;;;5.20;;
44694;SDS011;32845;59.422;17.930;2022-12-18T04:53:16;13.48;;;5.47;;
44694;SDS011;32845;59.422;17.930;2022-12-18T04:57:46;12.45;;;5.47;;
44694;SDS011;32845;59.422;17.930;2022-12-18T05:02:17;12.70;;;5.53;;
44694;SDS011;32845;59.422;17.930;2022-12-18T05:06:48;12.63;;;4.95;;
44694;SDS011;32845;59.422;17.930;2022-12-18T05:11:18;10.77;;;5.70;;
44694;SDS011;32845;59.422;17.930;2022-12-18T05:15:52;14.38;;;5.32;;
44694;SDS011;32845;59.422;17.930;2022-12-18T05:20:24;14.65;;;5.90;;
44694;SDS011;32845;59.422;17.930;2022-12-18T05:24:55;11.23;;;5.80;;
44694;SDS011;32845;59.422;17.930;2022-12-18T05:29:26;12.13;;;5.20;;
44694;SDS011;32845;59.422;17.930;2022-12-18T05:33:57;10.30;;;5.43;;
44694;SDS011;32845;59.422;17.930;2022-12-18T05:38:28;10.82;;;5.18;;
44694;SDS011;32845;59.422;17.930;2022-12-18T05:43:00;13.13;;;5.03;;
44694;SDS011;32845;59.422;17.930;2022-12-18T05:47:30;14.35;;;6.45;;
44694;SDS011;32845;59.422;17.930;2022-12-18T05:52:01;16.20;;;5.75;;
44694;SDS011;32845;59.422;17.930;2022-12-18T05:56:32;11.00;;;5.10;;
44694;SDS011;32845;59.422;17.930;2022-12-18T06:01:14;16.08;;;5.85;;
44694;SDS011;32845;59.422;17.930;2022-12-18T06:05:47;11.10;;;5.30;;
44694;SDS011;32845;59.422;17.930;2022-12-18T06:10:17;13.10;;;5.28;;
44694;SDS011;32845;59.422;17.930;2022-12-18T06:14:48;12.32;;;5.50;;
44694;SDS011;32845;59.422;17.930;2022-12-18T06:19:19;11.98;;;5.00;;
44694;SDS011;32845;59.422;17.930;2022-12-18T06:23:49;14.52;;;5.82;;
44694;SDS011;32845;59.422;17.930;2022-12-18T06:28:20;12.02;;;5.00;;
44694;SDS011;32845;59.422;17.930;2022-12-18T06:32:51;12.52;;;5.15;;
44694;SDS011;32845;59.422;17.930;2022-12-18T06:37:22;10.65;;;5.03;;
44694;SDS011;32845;59.422;17.930;2022-12-18T06:41:56;11.13;;;4.78;;
44694;SDS011;32845;59.422;17.930;2022-12-18T06:46:26;13.00;;;5.43;;
44694;SDS011;32845;59.422;17.930;2022-12-18T06:50:57;11.80;;;4.95;;
44694;SDS011;32845;59.422;17.930;2022-12-18T06:55:28;10.95;;;4.88;;
44694;SDS011;32845;59.422;17.930;2022-12-18T07:00:04;12.18;;;5.07;;
44694;SDS011;32845;59.422;17.930;2022-12-18T07:04:37;13.75;;;5.05;;
44694;SDS011;32845;59.422;17.930;2022-12-18T07:09:07;15.98;;;5.50;;
44694;SDS011;32845;59.422;17.930;2022-12-18T07:13:38;12.15;;;5.65;;
44694;SDS011;32845;59.422;17.930;2022-12-18T07:18:09;13.65;;;6.25;;
44694;SDS011;32845;59.422;17.930;2022-12-18T07:22:40;17.63;;;6.38;;
44694;SDS011;32845;59.422;17.930;2022-12-18T07:27:11;17.42;;;6.03;;
44694;SDS011;32845;59.422;17.930;2022-12-18T07:31:41;16.02;;;5.32;;
44694;SDS011;32845;59.422;17.930;2022-12-18T07:36:12;10.63;;;5.05;;
44694;SDS011;32845;59.422;17.930;2022-12-18T07:40:43;16.08;;;6.05;;
44694;SDS011;32845;59.422;17.930;2022-12-18T07:45:14;15.88;;;6.65;;
44694;SDS011;32845;59.422;17.930;2022-12-18T07:49:44;19.08;;;5.75;;
44694;SDS011;32845;59.422;17.930;2022-12-18T07:54:20;17.02;;;6.07;;
44694;SDS011;32845;59.422;17.930;2022-12-18T07:58:50;14.63;;;5.90;;
44694;SDS011;32845;59.422;17.930;2022-12-18T08:03:26;16.10;;;6.82;;
44694;SDS011;32845;59.422;17.930;2022-12-18T08:07:57;17.95;;;6.53;;
44694;SDS011;32845;59.422;17.930;2022-12-18T08:12:33;16.80;;;6.72;;
44694;SDS011;32845;59.422;17.930;2022-12-18T08:17:04;13.95;;;6.97;;
44694;SDS011;32845;59.422;17.930;2022-12-18T08:21:39;17.42;;;6.40;;
44694;SDS011;32845;59.422;17.930;2022-12-18T08:26:11;16.95;;;6.25;;
44694;SDS011;32845;59.422;17.930;2022-12-18T08:30:42;17.90;;;6.25;;
44694;SDS011;32845;59.422;17.930;2022-12-18T08:35:13;21.50;;;7.30;;
44694;SDS011;32845;59.422;17.930;2022-12-18T08:39:43;16.60;;;6.75;;
44694;SDS011;32845;59.422;17.930;2022-12-18T08:44:14;15.75;;;6.10;;
44694;SDS011;32845;59.422;17.930;2022-12-18T08:49:20;15.35;;;6.68;;
44694;SDS011;32845;59.422;17.930;2022-12-18T08:53:56;34.67;;;15.15;;
44694;SDS011;32845;59.422;17.930;2022-12-18T08:58:26;19.25;;;7.55;;
44694;SDS011;32845;59.422;17.930;2022-12-18T09:03:02;18.60;;;7.80;;
44694;SDS011;32845;59.422;17.930;2022-12-18T09:07:33;15.95;;;6.88;;
44694;SDS011;32845;59.422;17.930;2022-12-18T09:12:03;15.13;;;6.53;;
44694;SDS011;32845;59.422;17.930;2022-12-18T09:16:34;15.45;;;7.80;;
44694;SDS011;32845;59.422;17.930;2022-12-18T09:21:23;19.58;;;6.93;;
44694;SDS011;32845;59.422;17.930;2022-12-18T09:25:58;13.77;;;6.67;;
44694;SDS011;32845;59.422;17.930;2022-12-18T09:30:29;17.05;;;6.97;;
44694;SDS011;32845;59.422;17.930;2022-12-18T09:35:00;13.88;;;6.53;;
44694;SDS011;32845;59.422;17.930;2022-12-18T09:39:31;16.25;;;6.70;;
44694;SDS011;32845;59.422;17.930;2022-12-18T09:44:13;15.32;;;6.78;;
44694;SDS011;32845;59.422;17.930;2022-12-18T09:48:59;14.43;;;5.72;;
44694;SDS011;32845;59.422;17.930;2022-12-18T09:53:33;15.77;;;6.05;;
44694;SDS011;32845;59.422;17.930;2022-12-18T09:58:13;13.70;;;7.10;;
44694;SDS011;32845;59.422;17.930;2022-12-18T10:03:12;13.27;;;5.68;;
44694;SDS011;32845;59.422;17.930;2022-12-18T10:12:30;16.73;;;6.55;;
44694;SDS011;32845;59.422;17.930;2022-12-18T10:22:29;15.85;;;6.20;;
44694;SDS011;32845;59.422;17.930;2022-12-18T10:27:16;21.02;;;6.50;;
44694;SDS011;32845;59.422;17.930;2022-12-18T10:31:48;20.92;;;6.63;;
44694;SDS011;32845;59.422;17.930;2022-12-18T10:36:19;28.67;;;11.68;;
44694;SDS011;32845;59.422;17.930;2022-12-18T10:45:25;22.38;;;10.20;;
44694;SDS011;32845;59.422;17.930;2022-12-18T10:49:55;16.88;;;6.03;;
44694;SDS011;32845;59.422;17.930;2022-12-18T10:54:27;14.27;;;6.35;;
44694;SDS011;32845;59.422;17.930;2022-12-18T10:59:04;11.50;;;5.85;;
44694;SDS011;32845;59.422;17.930;2022-12-18T11:08:25;25.75;;;8.88;;
44694;SDS011;32845;59.422;17.930;2022-12-18T11:13:02;21.50;;;8.18;;
44694;SDS011;32845;59.422;17.930;2022-12-18T11:17:47;18.67;;;7.57;;
44694;SDS011;32845;59.422;17.930;2022-12-18T11:22:20;17.60;;;6.47;;
44694;SDS011;32845;59.422;17.930;2022-12-18T11:27:00;17.35;;;5.93;;
44694;SDS011;32845;59.422;17.930;2022-12-18T11:31:37;17.30;;;6.78;;
44694;SDS011;32845;59.422;17.930;2022-12-18T11:36:08;12.77;;;5.88;;
44694;SDS011;32845;59.422;17.930;2022-12-18T11:40:41;14.88;;;5.93;;
44694;SDS011;32845;59.422;17.930;2022-12-18T11:49:52;14.90;;;6.30;;
44694;SDS011;32845;59.422;17.930;2022-12-18T11:54:25;15.38;;;5.78;;
44694;SDS011;32845;59.422;17.930;2022-12-18T11:59:06;14.30;;;5.38;;
44694;SDS011;32845;59.422;17.930;2022-12-18T12:03:59;18.73;;;5.80;;
44694;SDS011;32845;59.422;17.930;2022-12-18T12:13:41;19.70;;;5.45;;
44694;SDS011;32845;59.422;17.930;2022-12-18T12:23:02;20.75;;;5.00;;
44694;SDS011;32845;59.422;17.930;2022-12-18T12:37:19;14.88;;;5.13;;
44694;SDS011;32845;59.422;17.930;2022-12-18T12:42:04;17.13;;;5.43;;
44694;SDS011;32845;59.422;17.930;2022-12-18T12:47:01;10.40;;;4.40;;
44694;SDS011;32845;59.422;17.930;2022-12-18T12:57:09;12.68;;;4.78;;
44694;SDS011;32845;59.422;17.930;2022-12-18T13:11:12;14.77;;;4.32;;
44694;SDS011;32845;59.422;17.930;2022-12-18T13:16:26;15.20;;;4.60;;
44694;SDS011;32845;59.422;17.930;2022-12-18T13:25:29;13.07;;;4.10;;
44694;SDS011;32845;59.422;17.930;2022-12-18T13:39:53;13.98;;;3.72;;
44694;SDS011;32845;59.422;17.930;2022-12-18T13:49:02;15.40;;;3.45;;
44694;SDS011;32845;59.422;17.930;2022-12-18T13:53:43;13.50;;;3.92;;
44694;SDS011;32845;59.422;17.930;2022-12-18T13:58:18;15.85;;;3.78;;
44694;SDS011;32845;59.422;17.930;2022-12-18T14:02:49;12.15;;;3.63;;
44694;SDS011;32845;59.422;17.930;2022-12-18T14:07:21;7.35;;;2.85;;
44694;SDS011;32845;59.422;17.930;2022-12-18T14:11:56;10.45;;;3.25;;
44694;SDS011;32845;59.422;17.930;2022-12-18T14:16:46;7.72;;;2.67;;
44694;SDS011;32845;59.422;17.930;2022-12-18T14:21:29;15.10;;;3.42;;
44694;SDS011;32845;59.422;17.930;2022-12-18T14:26:03;12.15;;;3.05;;
44694;SDS011;32845;59.422;17.930;2022-12-18T14:30:55;6.22;;;2.95;;
44694;SDS011;32845;59.422;17.930;2022-12-18T14:35:26;7.75;;;2.47;;
44694;SDS011;32845;59.422;17.930;2022-12-18T14:40:00;9.27;;;3.00;;
44694;SDS011;32845;59.422;17.930;2022-12-18T14:44:33;9.10;;;2.95;;
44694;SDS011;32845;59.422;17.930;2022-12-18T14:53:59;8.25;;;2.80;;
44694;SDS011;32845;59.422;17.930;2022-12-18T14:58:51;14.03;;;2.83;;
44694;SDS011;32845;59.422;17.930;2022-12-18T15:03:28;8.73;;;3.05;;
44694;SDS011;32845;59.422;17.930;2022-12-18T15:07:59;7.03;;;2.35;;
44694;SDS011;32845;59.422;17.930;2022-12-18T15:17:16;7.57;;;2.30;;
44694;SDS011;32845;59.422;17.930;2022-12-18T15:21:49;7.40;;;2.03;;
44694;SDS011;32845;59.422;17.930;2022-12-18T15:26:20;5.60;;;2.00;;
44694;SDS011;32845;59.422;17.930;2022-12-18T15:30:59;7.97;;;2.00;;
44694;SDS011;32845;59.422;17.930;2022-12-18T15:35:33;8.95;;;1.80;;
44694;SDS011;32845;59.422;17.930;2022-12-18T15:40:03;6.10;;;2.25;;
44694;SDS011;32845;59.422;17.930;2022-12-18T15:44:35;4.60;;;1.55;;
44694;SDS011;32845;59.422;17.930;2022-12-18T15:49:07;7.22;;;1.88;;
44694;SDS011;32845;59.422;17.930;2022-12-18T15:53:38;10.15;;;1.83;;
44694;SDS011;32845;59.422;17.930;2022-12-18T15:58:09;4.53;;;2.00;;
44694;SDS011;32845;59.422;17.930;2022-12-18T16:02:41;7.65;;;1.90;;
44694;SDS011;32845;59.422;17.930;2022-12-18T16:07:12;10.40;;;2.45;;
44694;SDS011;32845;59.422;17.930;2022-12-18T16:11:43;5.53;;;2.47;;
44694;SDS011;32845;59.422;17.930;2022-12-18T16:16:16;11.18;;;2.10;;
44694;SDS011;32845;59.422;17.930;2022-12-18T16:20:46;12.93;;;1.50;;
44694;SDS011;32845;59.422;17.930;2022-12-18T16:25:24;7.57;;;2.05;;
44694;SDS011;32845;59.422;17.930;2022-12-18T16:29:56;9.20;;;1.55;;
44694;SDS011;32845;59.422;17.930;2022-12-18T16:39:04;12.02;;;1.70;;
44694;SDS011;32845;59.422;17.930;2022-12-18T16:43:34;9.27;;;1.38;;
44694;SDS011;32845;59.422;17.930;2022-12-18T16:48:05;9.77;;;1.58;;
44694;SDS011;32845;59.422;17.930;2022-12-18T16:52:36;8.95;;;1.00;;
44694;SDS011;32845;59.422;17.930;2022-12-18T16:57:08;4.10;;;1.35;;
44694;SDS011;32845;59.422;17.930;2022-12-18T17:01:47;14.27;;;1.48;;
44694;SDS011;32845;59.422;17.930;2022-12-18T17:06:17;9.40;;;2.35;;
44694;SDS011;32845;59.422;17.930;2022-12-18T17:10:48;5.50;;;1.60;;
44694;SDS011;32845;59.422;17.930;2022-12-18T17:15:19;9.02;;;1.52;;
44694;SDS011;32845;59.422;17.930;2022-12-18T17:19:50;12.45;;;1.15;;
44694;SDS011;32845;59.422;17.930;2022-12-18T17:24:21;15.93;;;1.30;;
44694;SDS011;32845;59.422;17.930;2022-12-18T17:28:52;11.40;;;1.15;;
44694;SDS011;32845;59.422;17.930;2022-12-18T17:33:26;13.05;;;1.50;;
44694;SDS011;32845;59.422;17.930;2022-12-18T17:37:57;9.63;;;1.27;;
44694;SDS011;32845;59.422;17.930;2022-12-18T17:42:28;8.38;;;1.27;;
44694;SDS011;32845;59.422;17.930;2022-12-18T17:46:58;10.27;;;1.38;;
44694;SDS011;32845;59.422;17.930;2022-12-18T17:51:29;15.13;;;2.17;;
44694;SDS011;32845;59.422;17.930;2022-12-18T17:56:00;12.82;;;2.03;;
44694;SDS011;32845;59.422;17.930;2022-12-18T18:00:31;16.75;;;1.73;;
44694;SDS011;32845;59.422;17.930;2022-12-18T18:05:02;16.75;;;4.80;;
44694;SDS011;32845;59.422;17.930;2022-12-18T18:09:32;8.95;;;1.83;;
44694;SDS011;32845;59.422;17.930;2022-12-18T18:14:05;9.32;;;1.27;;
44694;SDS011;32845;59.422;17.930;2022-12-18T18:18:37;6.15;;;1.40;;
44694;SDS011;32845;59.422;17.930;2022-12-18T18:23:08;11.45;;;1.40;;
44694;SDS011;32845;59.422;17.930;2022-12-18T18:27:39;8.75;;;1.33;;
44694;SDS011;32845;59.422;17.930;2022-12-18T18:32:10;9.18;;;1.67;;
44694;SDS011;32845;59.422;17.930;2022-12-18T18:36:40;11.25;;;1.50;;
44694;SDS011;32845;59.422;17.930;2022-12-18T18:41:11;3.97;;;0.80;;
44694;SDS011;32845;59.422;17.930;2022-12-18T18:45:42;5.72;;;1.42;;
44694;SDS011;32845;59.422;17.930;2022-12-18T18:50:13;6.40;;;1.38;;
44694;SDS011;32845;59.422;17.930;2022-12-18T18:54:45;12.18;;;1.40;;
44694;SDS011;32845;59.422;17.930;2022-12-18T18:59:17;12.80;;;1.20;;
44694;SDS011;32845;59.422;17.930;2022-12-18T19:03:48;6.18;;;1.40;;
44694;SDS011;32845;59.422;17.930;2022-12-18T19:08:18;11.32;;;1.27;;
44694;SDS011;32845;59.422;17.930;2022-12-18T19:12:49;7.93;;;0.85;;
44694;SDS011;32845;59.422;17.930;2022-12-18T19:17:38;10.98;;;2.30;;
44694;SDS011;32845;59.422;17.930;2022-12-18T19:22:09;6.05;;;1.00;;
44694;SDS011;32845;59.422;17.930;2022-12-18T19:26:40;11.15;;;2.58;;
44694;SDS011;32845;59.422;17.930;2022-12-18T19:31:12;9.15;;;2.75;;
44694;SDS011;32845;59.422;17.930;2022-12-18T19:35:44;11.27;;;4.18;;
44694;SDS011;32845;59.422;17.930;2022-12-18T19:40:15;8.57;;;1.50;;
44694;SDS011;32845;59.422;17.930;2022-12-18T19:44:46;6.78;;;1.75;;
44694;SDS011;32845;59.422;17.930;2022-12-18T19:49:16;10.30;;;1.05;;
44694;SDS011;32845;59.422;17.930;2022-12-18T19:53:47;9.90;;;1.08;;
44694;SDS011;32845;59.422;17.930;2022-12-18T19:58:18;4.22;;;0.85;;
44694;SDS011;32845;59.422;17.930;2022-12-18T20:02:49;6.05;;;1.00;;
44694;SDS011;32845;59.422;17.930;2022-12-18T20:07:20;9.45;;;0.90;;
44694;SDS011;32845;59.422;17.930;2022-12-18T20:11:50;4.50;;;0.85;;
44694;SDS011;32845;59.422;17.930;2022-12-18T20:16:21;12.52;;;1.30;;
44694;SDS011;32845;59.422;17.930;2022-12-18T20:21:04;9.65;;;0.90;;
44694;SDS011;32845;59.422;17.930;2022-12-18T20:25:36;9.70;;;0.82;;
44694;SDS011;32845;59.422;17.930;2022-12-18T20:30:07;9.70;;;0.73;;
44694;SDS011;32845;59.422;17.930;2022-12-18T20:34:39;6.63;;;1.10;;
44694;SDS011;32845;59.422;17.930;2022-12-18T20:39:09;5.63;;;0.60;;
44694;SDS011;32845;59.422;17.930;2022-12-18T20:43:41;3.17;;;0.88;;
44694;SDS011;32845;59.422;17.930;2022-12-18T20:48:11;8.98;;;0.95;;
44694;SDS011;32845;59.422;17.930;2022-12-18T20:52:42;6.45;;;1.10;;
44694;SDS011;32845;59.422;17.930;2022-12-18T20:57:13;6.18;;;0.50;;
44694;SDS011;32845;59.422;17.930;2022-12-18T21:01:44;5.40;;;1.77;;
44694;SDS011;32845;59.422;17.930;2022-12-18T21:06:16;9.75;;;2.30;;
44694;SDS011;32845;59.422;17.930;2022-12-18T21:10:53;7.45;;;2.28;;
44694;SDS011;32845;59.422;17.930;2022-12-18T21:15:24;4.80;;;0.75;;
44694;SDS011;32845;59.422;17.930;2022-12-18T21:19:55;5.57;;;0.90;;
44694;SDS011;32845;59.422;17.930;2022-12-18T21:24:26;7.10;;;0.82;;
44694;SDS011;32845;59.422;17.930;2022-12-18T21:28:58;6.18;;;1.60;;
44694;SDS011;32845;59.422;17.930;2022-12-18T21:33:31;7.20;;;1.67;;
44694;SDS011;32845;59.422;17.930;2022-12-18T21:38:02;6.47;;;1.13;;
44694;SDS011;32845;59.422;17.930;2022-12-18T21:42:33;6.47;;;1.02;;
44694;SDS011;32845;59.422;17.930;2022-12-18T21:47:22;6.80;;;1.10;;
44694;SDS011;32845;59.422;17.930;2022-12-18T21:51:57;10.15;;;1.00;;
44694;SDS011;32845;59.422;17.930;2022-12-18T21:56:41;11.48;;;1.15;;
44694;SDS011;32845;59.422;17.930;2022-12-18T22:01:12;3.70;;;0.55;;
44694;SDS011;32845;59.422;17.930;2022-12-18T22:05:43;4.00;;;0.70;;
44694;SDS011;32845;59.422;17.930;2022-12-18T22:10:14;4.20;;;0.52;;
44694;SDS011;32845;59.422;17.930;2022-12-18T22:14:50;4.32;;;0.73;;
44694;SDS011;32845;59.422;17.930;2022-12-18T22:19:20;3.90;;;0.77;;
44694;SDS011;32845;59.422;17.930;2022-12-18T22:23:52;6.55;;;1.27;;
44694;SDS011;32845;59.422;17.930;2022-12-18T22:28:29;12.95;;;1.20;;
44694;SDS011;32845;59.422;17.930;2022-12-18T22:33:18;3.20;;;1.20;;
44694;SDS011;32845;59.422;17.930;2022-12-18T22:37:49;4.65;;;1.33;;
44694;SDS011;32845;59.422;17.930;2022-12-18T22:42:20;6.18;;;1.90;;
44694;SDS011;32845;59.422;17.930;2022-12-18T22:46:51;4.68;;;1.67;;
44694;SDS011;32845;59.422;17.930;2022-12-18T22:51:23;10.35;;;1.85;;
44694;SDS011;32845;59.422;17.930;2022-12-18T22:56:00;12.07;;;0.70;;
44694;SDS011;32845;59.422;17.930;2022-12-18T23:00:31;7.65;;;0.93;;
44694;SDS011;32845;59.422;17.930;2022-12-18T23:05:02;4.03;;;1.00;;
44694;SDS011;32845;59.422;17.930;2022-12-18T23:09:32;12.23;;;1.65;;
44694;SDS011;32845;59.422;17.930;2022-12-18T23:14:08;8.75;;;1.20;;
44694;SDS011;32845;59.422;17.930;2022-12-18T23:18:39;4.80;;;1.02;;
44694;SDS011;32845;59.422;17.930;2022-12-18T23:23:11;3.95;;;0.85;;
44694;SDS011;32845;59.422;17.930;2022-12-18T23:27:42;6.90;;;1.05;;
44694;SDS011;32845;59.422;17.930;2022-12-18T23:32:17;12.20;;;1.00;;
44694;SDS011;32845;59.422;17.930;2022-12-18T23:36:48;6.63;;;0.93;;
44694;SDS011;32845;59.422;17.930;2022-12-18T23:41:20;2.47;;;0.80;;
44694;SDS011;32845;59.422;17.930;2022-12-18T23:45:52;7.28;;;1.25;;
44694;SDS011;32845;59.422;17.930;2022-12-18T23:50:23;5.82;;;0.70;;
44694;SDS011;32845;59.422;17.930;2022-12-18T23:54:53;4.85;;;0.82;;
44694;SDS011;32845;59.422;17.930;2022-12-18T23:59:24;4.95;;;0.73;;
